sensor_id;sensor_type;location;lat;lon;timestamp;pressure;altitude;pressure_sealevel;temperature;humidity
49709;BME280;35601;55.902;13.606;2023-02-04T00:01:11;101884.69;;;-4.06;80.87
49709;BME280;35601;55.902;13.606;2023-02-04T00:03:37;101896.43;;;-4.02;80.51
49709;BME280;35601;55.902;13.606;2023-02-04T00:06:02;101904.50;;;-3.99;80.55
49709;BME280;35601;55.902;13.606;2023-02-04T00:08:27;101909.64;;;-4.11;80.98
49709;BME280;35601;55.902;13.606;2023-02-04T00:10:53;101911.29;;;-4.13;80.80
49709;BME280;35601;55.902;13.606;2023-02-04T00:13:18;101917.51;;;-4.27;81.11
49709;BME280;35601;55.902;13.606;2023-02-04T00:15:44;101926.75;;;-4.16;81.79
49709;BME280;35601;55.902;13.606;2023-02-04T00:18:09;101936.07;;;-4.45;82.21
49709;BME280;35601;55.902;13.606;2023-02-04T00:20:34;101940.18;;;-3.97;81.51
49709;BME280;35601;55.902;13.606;2023-02-04T00:23:00;101949.24;;;-4.31;81.61
49709;BME280;35601;55.902;13.606;2023-02-04T00:25:25;101954.30;;;-4.03;81.80
49709;BME280;35601;55.902;13.606;2023-02-04T00:27:51;101967.83;;;-4.14;82.01
49709;BME280;35601;55.902;13.606;2023-02-04T00:30:16;101981.48;;;-4.16;81.95
49709;BME280;35601;55.902;13.606;2023-02-04T00:32:42;101982.65;;;-4.22;81.39
49709;BME280;35601;55.902;13.606;2023-02-04T00:35:07;101992.04;;;-4.18;81.12
49709;BME280;35601;55.902;13.606;2023-02-04T00:37:32;101996.34;;;-4.54;81.17
49709;BME280;35601;55.902;13.606;2023-02-04T00:39:58;102001.87;;;-4.35;81.34
49709;BME280;35601;55.902;13.606;2023-02-04T00:42:23;102007.90;;;-4.33;80.86
49709;BME280;35601;55.902;13.606;2023-02-04T00:44:49;102013.20;;;-4.16;80.28
49709;BME280;35601;55.902;13.606;2023-02-04T00:47:14;102018.34;;;-3.96;80.30
49709;BME280;35601;55.902;13.606;2023-02-04T00:49:40;102015.93;;;-4.22;79.70
49709;BME280;35601;55.902;13.606;2023-02-04T00:52:05;102017.04;;;-4.54;80.33
49709;BME280;35601;55.902;13.606;2023-02-04T00:54:30;102025.36;;;-4.32;79.92
49709;BME280;35601;55.902;13.606;2023-02-04T00:56:56;102033.17;;;-4.51;79.95
49709;BME280;35601;55.902;13.606;2023-02-04T00:59:21;102041.74;;;-4.62;79.90
49709;BME280;35601;55.902;13.606;2023-02-04T01:01:47;102044.36;;;-4.38;79.94
49709;BME280;35601;55.902;13.606;2023-02-04T01:04:12;102050.76;;;-4.41;80.01
49709;BME280;35601;55.902;13.606;2023-02-04T01:06:38;102055.76;;;-4.30;79.62
49709;BME280;35601;55.902;13.606;2023-02-04T01:09:03;102065.03;;;-4.15;78.95
49709;BME280;35601;55.902;13.606;2023-02-04T01:11:29;102067.52;;;-4.15;78.59
49709;BME280;35601;55.902;13.606;2023-02-04T01:13:54;102074.83;;;-4.29;78.07
49709;BME280;35601;55.902;13.606;2023-02-04T01:16:19;102082.70;;;-4.26;78.48
49709;BME280;35601;55.902;13.606;2023-02-04T01:18:45;102089.79;;;-4.14;78.47
49709;BME280;35601;55.902;13.606;2023-02-04T01:21:10;102090.65;;;-4.40;78.16
49709;BME280;35601;55.902;13.606;2023-02-04T01:23:36;102097.05;;;-4.64;78.06
49709;BME280;35601;55.902;13.606;2023-02-04T01:26:01;102105.17;;;-4.49;78.18
49709;BME280;35601;55.902;13.606;2023-02-04T01:28:27;102113.70;;;-4.60;77.50
49709;BME280;35601;55.902;13.606;2023-02-04T01:30:52;102123.15;;;-4.37;77.49
49709;BME280;35601;55.902;13.606;2023-02-04T01:33:17;102126.09;;;-4.53;78.13
49709;BME280;35601;55.902;13.606;2023-02-04T01:35:43;102131.67;;;-4.61;78.42
49709;BME280;35601;55.902;13.606;2023-02-04T01:38:08;102136.75;;;-4.48;78.72
49709;BME280;35601;55.902;13.606;2023-02-04T01:40:33;102148.29;;;-4.82;78.62
49709;BME280;35601;55.902;13.606;2023-02-04T01:42:59;102149.57;;;-4.56;78.85
49709;BME280;35601;55.902;13.606;2023-02-04T01:45:24;102154.26;;;-4.90;78.90
49709;BME280;35601;55.902;13.606;2023-02-04T01:47:50;102160.85;;;-4.72;79.06
49709;BME280;35601;55.902;13.606;2023-02-04T01:50:16;102166.77;;;-4.83;79.56
49709;BME280;35601;55.902;13.606;2023-02-04T01:52:42;102174.55;;;-4.70;79.90
49709;BME280;35601;55.902;13.606;2023-02-04T01:55:12;102177.57;;;-4.81;80.32
49709;BME280;35601;55.902;13.606;2023-02-04T01:57:32;102178.57;;;-5.09;80.26
49709;BME280;35601;55.902;13.606;2023-02-04T01:59:57;102186.57;;;-4.89;80.35
49709;BME280;35601;55.902;13.606;2023-02-04T02:02:37;102190.13;;;-4.94;80.56
49709;BME280;35601;55.902;13.606;2023-02-04T02:04:48;102196.83;;;-5.00;80.92
49709;BME280;35601;55.902;13.606;2023-02-04T02:07:13;102196.03;;;-4.95;80.54
49709;BME280;35601;55.902;13.606;2023-02-04T02:09:39;102197.53;;;-4.98;80.36
49709;BME280;35601;55.902;13.606;2023-02-04T02:12:04;102204.14;;;-4.98;80.44
49709;BME280;35601;55.902;13.606;2023-02-04T02:14:30;102210.77;;;-4.86;79.90
49709;BME280;35601;55.902;13.606;2023-02-04T02:16:55;102218.38;;;-4.97;80.17
49709;BME280;35601;55.902;13.606;2023-02-04T02:19:25;102224.84;;;-5.00;80.29
49709;BME280;35601;55.902;13.606;2023-02-04T02:21:50;102228.79;;;-5.04;80.31
49709;BME280;35601;55.902;13.606;2023-02-04T02:24:23;102233.09;;;-5.09;80.42
49709;BME280;35601;55.902;13.606;2023-02-04T02:26:37;102244.36;;;-5.08;80.32
49709;BME280;35601;55.902;13.606;2023-02-04T02:29:02;102247.49;;;-5.16;80.54
49709;BME280;35601;55.902;13.606;2023-02-04T02:31:28;102250.02;;;-5.30;80.90
49709;BME280;35601;55.902;13.606;2023-02-04T02:33:53;102259.54;;;-5.38;81.15
49709;BME280;35601;55.902;13.606;2023-02-04T02:36:19;102267.25;;;-5.70;81.71
49709;BME280;35601;55.902;13.606;2023-02-04T02:38:44;102270.77;;;-5.56;82.13
49709;BME280;35601;55.902;13.606;2023-02-04T02:41:10;102276.36;;;-5.34;82.09
49709;BME280;35601;55.902;13.606;2023-02-04T02:43:37;102277.15;;;-5.37;82.18
49709;BME280;35601;55.902;13.606;2023-02-04T02:46:01;102284.39;;;-5.29;81.85
49709;BME280;35601;55.902;13.606;2023-02-04T02:48:26;102294.31;;;-5.40;82.31
49709;BME280;35601;55.902;13.606;2023-02-04T02:50:52;102297.18;;;-5.50;82.30
49709;BME280;35601;55.902;13.606;2023-02-04T02:53:19;102303.51;;;-5.41;82.28
49709;BME280;35601;55.902;13.606;2023-02-04T02:55:43;102306.44;;;-5.54;82.01
49709;BME280;35601;55.902;13.606;2023-02-04T02:58:12;102315.33;;;-5.64;82.32
49709;BME280;35601;55.902;13.606;2023-02-04T03:00:33;102321.71;;;-5.62;82.75
49709;BME280;35601;55.902;13.606;2023-02-04T03:03:02;102327.32;;;-5.69;83.42
49709;BME280;35601;55.902;13.606;2023-02-04T03:05:25;102329.02;;;-5.89;83.37
49709;BME280;35601;55.902;13.606;2023-02-04T03:07:50;102335.93;;;-5.54;82.99
49709;BME280;35601;55.902;13.606;2023-02-04T03:10:15;102339.97;;;-5.90;83.13
49709;BME280;35601;55.902;13.606;2023-02-04T03:12:41;102338.30;;;-5.75;82.94
49709;BME280;35601;55.902;13.606;2023-02-04T03:15:07;102340.88;;;-5.56;81.85
49709;BME280;35601;55.902;13.606;2023-02-04T03:17:32;102343.07;;;-5.71;82.34
49709;BME280;35601;55.902;13.606;2023-02-04T03:19:57;102347.69;;;-5.75;81.52
49709;BME280;35601;55.902;13.606;2023-02-04T03:22:23;102354.70;;;-5.58;80.72
49709;BME280;35601;55.902;13.606;2023-02-04T03:24:48;102355.81;;;-5.66;80.66
49709;BME280;35601;55.902;13.606;2023-02-04T03:27:14;102361.24;;;-5.58;80.33
49709;BME280;35601;55.902;13.606;2023-02-04T03:29:42;102365.52;;;-5.51;80.89
49709;BME280;35601;55.902;13.606;2023-02-04T03:32:04;102369.99;;;-5.55;80.09
49709;BME280;35601;55.902;13.606;2023-02-04T03:34:30;102376.80;;;-5.59;80.03
49709;BME280;35601;55.902;13.606;2023-02-04T03:36:55;102380.12;;;-5.77;79.86
49709;BME280;35601;55.902;13.606;2023-02-04T03:39:21;102385.88;;;-5.67;79.28
49709;BME280;35601;55.902;13.606;2023-02-04T03:41:46;102392.71;;;-5.76;79.29
49709;BME280;35601;55.902;13.606;2023-02-04T03:44:12;102396.17;;;-5.29;79.31
49709;BME280;35601;55.902;13.606;2023-02-04T03:46:37;102402.37;;;-5.30;79.43
49709;BME280;35601;55.902;13.606;2023-02-04T03:49:03;102408.75;;;-5.57;79.36
49709;BME280;35601;55.902;13.606;2023-02-04T03:51:28;102414.17;;;-5.83;79.07
49709;BME280;35601;55.902;13.606;2023-02-04T03:53:54;102419.28;;;-5.45;79.24
49709;BME280;35601;55.902;13.606;2023-02-04T03:56:19;102426.43;;;-5.58;79.54
49709;BME280;35601;55.902;13.606;2023-02-04T03:58:44;102431.55;;;-5.59;79.68
49709;BME280;35601;55.902;13.606;2023-02-04T04:01:10;102433.73;;;-5.51;79.62
49709;BME280;35601;55.902;13.606;2023-02-04T04:03:35;102439.65;;;-5.81;79.24
49709;BME280;35601;55.902;13.606;2023-02-04T04:06:01;102443.54;;;-5.82;79.31
49709;BME280;35601;55.902;13.606;2023-02-04T04:08:26;102449.22;;;-5.99;79.26
49709;BME280;35601;55.902;13.606;2023-02-04T04:10:52;102454.42;;;-5.58;79.30
49709;BME280;35601;55.902;13.606;2023-02-04T04:13:17;102457.88;;;-5.83;79.21
49709;BME280;35601;55.902;13.606;2023-02-04T04:15:43;102457.89;;;-5.70;79.52
49709;BME280;35601;55.902;13.606;2023-02-04T04:18:08;102461.79;;;-5.73;79.66
49709;BME280;35601;55.902;13.606;2023-02-04T04:20:34;102466.95;;;-5.74;79.65
49709;BME280;35601;55.902;13.606;2023-02-04T04:22:59;102465.91;;;-6.27;79.57
49709;BME280;35601;55.902;13.606;2023-02-04T04:25:25;102470.66;;;-7.22;79.31
49709;BME280;35601;55.902;13.606;2023-02-04T04:27:51;102476.32;;;-6.18;78.99
49709;BME280;35601;55.902;13.606;2023-02-04T04:30:16;102483.18;;;-5.68;78.85
49709;BME280;35601;55.902;13.606;2023-02-04T04:32:41;102485.64;;;-5.88;79.14
49709;BME280;35601;55.902;13.606;2023-02-04T04:35:07;102499.17;;;-6.24;79.64
49709;BME280;35601;55.902;13.606;2023-02-04T04:37:32;102504.83;;;-6.11;79.89
49709;BME280;35601;55.902;13.606;2023-02-04T04:39:57;102507.46;;;-6.27;80.43
49709;BME280;35601;55.902;13.606;2023-02-04T04:42:23;102513.83;;;-6.14;80.03
49709;BME280;35601;55.902;13.606;2023-02-04T04:44:49;102512.22;;;-6.17;79.84
49709;BME280;35601;55.902;13.606;2023-02-04T04:47:14;102516.82;;;-6.05;79.32
49709;BME280;35601;55.902;13.606;2023-02-04T04:49:39;102521.15;;;-6.12;79.27
49709;BME280;35601;55.902;13.606;2023-02-04T04:52:05;102524.00;;;-6.12;79.05
49709;BME280;35601;55.902;13.606;2023-02-04T04:54:30;102526.34;;;-6.32;78.67
49709;BME280;35601;55.902;13.606;2023-02-04T04:56:56;102532.48;;;-6.19;78.63
49709;BME280;35601;55.902;13.606;2023-02-04T04:59:21;102546.94;;;-5.97;78.92
49709;BME280;35601;55.902;13.606;2023-02-04T05:01:47;102558.01;;;-6.29;79.08
49709;BME280;35601;55.902;13.606;2023-02-04T05:04:12;102567.91;;;-6.35;79.14
49709;BME280;35601;55.902;13.606;2023-02-04T05:06:37;102580.37;;;-6.08;78.77
49709;BME280;35601;55.902;13.606;2023-02-04T05:09:03;102581.07;;;-6.46;79.15
49709;BME280;35601;55.902;13.606;2023-02-04T05:11:28;102585.35;;;-6.38;78.75
49709;BME280;35601;55.902;13.606;2023-02-04T05:13:54;102592.50;;;-6.74;79.10
49709;BME280;35601;55.902;13.606;2023-02-04T05:16:19;102599.09;;;-6.40;78.87
49709;BME280;35601;55.902;13.606;2023-02-04T05:18:45;102596.56;;;-6.78;78.94
49709;BME280;35601;55.902;13.606;2023-02-04T05:21:10;102598.77;;;-6.35;79.28
49709;BME280;35601;55.902;13.606;2023-02-04T05:23:36;102600.65;;;-6.40;79.27
49709;BME280;35601;55.902;13.606;2023-02-04T05:26:01;102606.03;;;-6.84;78.57
49709;BME280;35601;55.902;13.606;2023-02-04T05:28:26;102613.32;;;-6.67;78.15
49709;BME280;35601;55.902;13.606;2023-02-04T05:30:52;102616.26;;;-6.52;78.25
49709;BME280;35601;55.902;13.606;2023-02-04T05:33:17;102620.23;;;-6.71;78.13
49709;BME280;35601;55.902;13.606;2023-02-04T05:35:43;102623.42;;;-6.34;78.23
49709;BME280;35601;55.902;13.606;2023-02-04T05:38:08;102625.59;;;-6.71;78.25
49709;BME280;35601;55.902;13.606;2023-02-04T05:40:34;102631.60;;;-6.67;78.05
49709;BME280;35601;55.902;13.606;2023-02-04T05:42:59;102637.83;;;-6.68;77.98
49709;BME280;35601;55.902;13.606;2023-02-04T05:45:25;102643.10;;;-6.73;78.03
49709;BME280;35601;55.902;13.606;2023-02-04T05:47:51;102650.74;;;-6.77;78.18
49709;BME280;35601;55.902;13.606;2023-02-04T05:50:16;102658.30;;;-6.64;77.62
49709;BME280;35601;55.902;13.606;2023-02-04T05:52:41;102662.39;;;-6.88;77.54
49709;BME280;35601;55.902;13.606;2023-02-04T05:55:09;102669.46;;;-6.79;76.97
49709;BME280;35601;55.902;13.606;2023-02-04T05:57:32;102673.81;;;-6.76;76.87
49709;BME280;35601;55.902;13.606;2023-02-04T05:59:58;102679.09;;;-6.61;76.93
49709;BME280;35601;55.902;13.606;2023-02-04T06:02:23;102680.46;;;-6.57;76.71
49709;BME280;35601;55.902;13.606;2023-02-04T06:04:48;102681.75;;;-6.73;76.78
49709;BME280;35601;55.902;13.606;2023-02-04T06:07:14;102686.09;;;-7.01;76.77
49709;BME280;35601;55.902;13.606;2023-02-04T06:09:39;102686.35;;;-6.84;76.83
49709;BME280;35601;55.902;13.606;2023-02-04T06:12:05;102685.17;;;-6.79;76.74
49709;BME280;35601;55.902;13.606;2023-02-04T06:14:30;102683.49;;;-6.90;76.55
49709;BME280;35601;55.902;13.606;2023-02-04T06:16:56;102684.76;;;-6.86;76.70
49709;BME280;35601;55.902;13.606;2023-02-04T06:19:21;102689.35;;;-7.04;76.29
49709;BME280;35601;55.902;13.606;2023-02-04T06:21:47;102689.07;;;-7.21;75.71
49709;BME280;35601;55.902;13.606;2023-02-04T06:24:12;102686.34;;;-7.26;75.89
49709;BME280;35601;55.902;13.606;2023-02-04T06:26:38;102694.93;;;-7.05;75.95
49709;BME280;35601;55.902;13.606;2023-02-04T06:29:04;102700.03;;;-7.08;75.79
49709;BME280;35601;55.902;13.606;2023-02-04T06:31:29;102705.04;;;-7.38;75.88
49709;BME280;35601;55.902;13.606;2023-02-04T06:33:54;102710.03;;;-7.19;75.80
49709;BME280;35601;55.902;13.606;2023-02-04T06:36:20;102712.69;;;-7.24;75.80
49709;BME280;35601;55.902;13.606;2023-02-04T06:38:45;102715.96;;;-6.99;75.53
49709;BME280;35601;55.902;13.606;2023-02-04T06:41:11;102718.07;;;-7.23;75.41
49709;BME280;35601;55.902;13.606;2023-02-04T06:43:36;102724.71;;;-7.26;75.18
49709;BME280;35601;55.902;13.606;2023-02-04T06:46:02;102729.34;;;-7.37;75.50
49709;BME280;35601;55.902;13.606;2023-02-04T06:48:27;102734.41;;;-7.35;75.34
49709;BME280;35601;55.902;13.606;2023-02-04T06:50:53;102738.90;;;-7.31;75.01
49709;BME280;35601;55.902;13.606;2023-02-04T06:53:19;102743.68;;;-7.08;74.82
49709;BME280;35601;55.902;13.606;2023-02-04T06:55:44;102744.67;;;-7.44;74.91
49709;BME280;35601;55.902;13.606;2023-02-04T06:58:10;102749.59;;;-7.40;74.80
49709;BME280;35601;55.902;13.606;2023-02-04T07:00:35;102756.29;;;-7.49;74.72
49709;BME280;35601;55.902;13.606;2023-02-04T07:03:01;102765.55;;;-7.29;74.42
49709;BME280;35601;55.902;13.606;2023-02-04T07:05:26;102767.91;;;-7.45;74.86
49709;BME280;35601;55.902;13.606;2023-02-04T07:07:52;102775.26;;;-7.54;75.22
49709;BME280;35601;55.902;13.606;2023-02-04T07:10:18;102779.09;;;-7.51;74.80
49709;BME280;35601;55.902;13.606;2023-02-04T07:12:43;102783.62;;;-7.62;75.03
49709;BME280;35601;55.902;13.606;2023-02-04T07:15:09;102788.31;;;-7.66;75.17
49709;BME280;35601;55.902;13.606;2023-02-04T07:17:34;102789.95;;;-7.70;75.27
49709;BME280;35601;55.902;13.606;2023-02-04T07:19:59;102791.12;;;-7.60;74.87
49709;BME280;35601;55.902;13.606;2023-02-04T07:22:25;102793.87;;;-7.78;75.47
49709;BME280;35601;55.902;13.606;2023-02-04T07:24:50;102800.31;;;-7.84;75.69
49709;BME280;35601;55.902;13.606;2023-02-04T07:27:15;102800.96;;;-7.97;75.50
49709;BME280;35601;55.902;13.606;2023-02-04T07:29:41;102803.55;;;-7.64;74.95
49709;BME280;35601;55.902;13.606;2023-02-04T07:32:07;102804.18;;;-7.82;74.72
49709;BME280;35601;55.902;13.606;2023-02-04T07:34:32;102803.68;;;-7.92;74.75
49709;BME280;35601;55.902;13.606;2023-02-04T07:36:57;102807.19;;;-7.91;74.85
49709;BME280;35601;55.902;13.606;2023-02-04T07:39:23;102811.68;;;-7.87;74.42
49709;BME280;35601;55.902;13.606;2023-02-04T07:41:48;102812.55;;;-7.82;74.11
49709;BME280;35601;55.902;13.606;2023-02-04T07:44:14;102823.35;;;-7.99;74.35
49709;BME280;35601;55.902;13.606;2023-02-04T07:46:39;102827.61;;;-7.76;74.09
49709;BME280;35601;55.902;13.606;2023-02-04T07:49:05;102828.16;;;-7.64;73.87
49709;BME280;35601;55.902;13.606;2023-02-04T07:51:31;102834.76;;;-7.64;73.71
49709;BME280;35601;55.902;13.606;2023-02-04T07:53:56;102836.31;;;-7.83;73.77
49709;BME280;35601;55.902;13.606;2023-02-04T07:56:22;102839.17;;;-7.96;73.61
49709;BME280;35601;55.902;13.606;2023-02-04T07:58:47;102839.63;;;-7.79;73.64
49709;BME280;35601;55.902;13.606;2023-02-04T08:01:13;102840.53;;;-7.89;73.59
49709;BME280;35601;55.902;13.606;2023-02-04T08:03:38;102841.68;;;-7.59;73.29
49709;BME280;35601;55.902;13.606;2023-02-04T08:06:04;102843.74;;;-7.67;73.22
49709;BME280;35601;55.902;13.606;2023-02-04T08:08:29;102846.99;;;-7.51;72.82
49709;BME280;35601;55.902;13.606;2023-02-04T08:10:55;102850.70;;;-7.64;72.71
49709;BME280;35601;55.902;13.606;2023-02-04T08:13:20;102853.14;;;-7.64;72.33
49709;BME280;35601;55.902;13.606;2023-02-04T08:15:46;102861.48;;;-7.61;72.48
49709;BME280;35601;55.902;13.606;2023-02-04T08:18:11;102863.65;;;-7.54;72.19
49709;BME280;35601;55.902;13.606;2023-02-04T08:20:37;102864.50;;;-7.44;72.31
49709;BME280;35601;55.902;13.606;2023-02-04T08:23:02;102863.78;;;-7.34;71.84
49709;BME280;35601;55.902;13.606;2023-02-04T08:25:28;102867.49;;;-7.11;71.65
49709;BME280;35601;55.902;13.606;2023-02-04T08:27:53;102868.19;;;-7.15;71.34
49709;BME280;35601;55.902;13.606;2023-02-04T08:30:19;102874.32;;;-7.02;70.48
49709;BME280;35601;55.902;13.606;2023-02-04T08:32:44;102875.57;;;-7.06;70.57
49709;BME280;35601;55.902;13.606;2023-02-04T08:35:10;102877.38;;;-7.41;70.64
49709;BME280;35601;55.902;13.606;2023-02-04T08:37:36;102886.03;;;-7.72;70.66
49709;BME280;35601;55.902;13.606;2023-02-04T08:40:01;102886.46;;;-7.26;71.11
49709;BME280;35601;55.902;13.606;2023-02-04T08:42:26;102888.94;;;-7.34;71.66
49709;BME280;35601;55.902;13.606;2023-02-04T08:44:52;102890.06;;;-7.21;70.56
49709;BME280;35601;55.902;13.606;2023-02-04T08:47:17;102896.26;;;-7.14;70.97
49709;BME280;35601;55.902;13.606;2023-02-04T08:49:43;102904.04;;;-7.00;70.52
49709;BME280;35601;55.902;13.606;2023-02-04T08:52:08;102907.30;;;-6.79;70.22
49709;BME280;35601;55.902;13.606;2023-02-04T08:54:34;102907.52;;;-6.99;70.21
49709;BME280;35601;55.902;13.606;2023-02-04T08:57:00;102909.43;;;-6.89;69.80
49709;BME280;35601;55.902;13.606;2023-02-04T08:59:25;102911.23;;;-6.82;69.33
49709;BME280;35601;55.902;13.606;2023-02-04T09:01:51;102913.34;;;-7.03;69.32
49709;BME280;35601;55.902;13.606;2023-02-04T09:04:16;102921.16;;;-6.64;68.90
49709;BME280;35601;55.902;13.606;2023-02-04T09:06:41;102926.15;;;-6.82;68.79
49709;BME280;35601;55.902;13.606;2023-02-04T09:09:07;102925.55;;;-6.65;68.65
49709;BME280;35601;55.902;13.606;2023-02-04T09:11:32;102926.67;;;-6.73;68.64
49709;BME280;35601;55.902;13.606;2023-02-04T09:13:58;102937.04;;;-6.55;68.89
49709;BME280;35601;55.902;13.606;2023-02-04T09:16:23;102941.08;;;-6.44;67.63
49709;BME280;35601;55.902;13.606;2023-02-04T09:18:49;102939.35;;;-6.82;67.21
49709;BME280;35601;55.902;13.606;2023-02-04T09:21:14;102942.41;;;-6.94;67.91
49709;BME280;35601;55.902;13.606;2023-02-04T09:23:40;102940.09;;;-6.41;68.24
49709;BME280;35601;55.902;13.606;2023-02-04T09:26:05;102944.86;;;-6.59;67.73
49709;BME280;35601;55.902;13.606;2023-02-04T09:28:31;102950.26;;;-5.98;66.24
49709;BME280;35601;55.902;13.606;2023-02-04T09:30:56;102957.21;;;-6.19;66.43
49709;BME280;35601;55.902;13.606;2023-02-04T09:33:22;102962.85;;;-6.00;65.78
49709;BME280;35601;55.902;13.606;2023-02-04T09:35:47;102965.76;;;-5.72;64.47
49709;BME280;35601;55.902;13.606;2023-02-04T09:38:13;102972.94;;;-5.48;64.30
49709;BME280;35601;55.902;13.606;2023-02-04T09:40:43;102976.83;;;-5.39;63.08
49709;BME280;35601;55.902;13.606;2023-02-04T09:43:04;102981.22;;;-5.68;63.01
49709;BME280;35601;55.902;13.606;2023-02-04T09:45:31;102982.01;;;-5.59;62.52
49709;BME280;35601;55.902;13.606;2023-02-04T09:47:56;102982.36;;;-5.56;61.95
49709;BME280;35601;55.902;13.606;2023-02-04T09:50:21;102980.64;;;-5.69;61.36
49709;BME280;35601;55.902;13.606;2023-02-04T09:52:47;102980.83;;;-5.91;61.98
49709;BME280;35601;55.902;13.606;2023-02-04T09:55:12;102980.82;;;-5.54;62.59
49709;BME280;35601;55.902;13.606;2023-02-04T09:57:36;102984.06;;;-5.63;61.81
49709;BME280;35601;55.902;13.606;2023-02-04T10:00:05;102984.40;;;-5.45;62.44
49709;BME280;35601;55.902;13.606;2023-02-04T10:02:27;102987.46;;;-5.30;62.78
49709;BME280;35601;55.902;13.606;2023-02-04T10:04:55;102991.47;;;-5.04;62.28
49709;BME280;35601;55.902;13.606;2023-02-04T10:07:20;102992.78;;;-5.30;61.76
49709;BME280;35601;55.902;13.606;2023-02-04T10:09:43;102992.37;;;-5.16;60.36
49709;BME280;35601;55.902;13.606;2023-02-04T10:12:09;102996.03;;;-5.30;60.93
49709;BME280;35601;55.902;13.606;2023-02-04T10:14:34;102991.48;;;-4.79;60.26
49709;BME280;35601;55.902;13.606;2023-02-04T10:17:00;102993.25;;;-5.04;59.61
49709;BME280;35601;55.902;13.606;2023-02-04T10:19:26;102993.33;;;-4.89;60.25
49709;BME280;35601;55.902;13.606;2023-02-04T10:21:50;102994.66;;;-4.61;60.29
49709;BME280;35601;55.902;13.606;2023-02-04T10:24:18;102995.55;;;-4.60;59.55
49709;BME280;35601;55.902;13.606;2023-02-04T10:26:42;103000.74;;;-4.87;58.32
49709;BME280;35601;55.902;13.606;2023-02-04T10:29:12;103002.70;;;-4.58;60.52
49709;BME280;35601;55.902;13.606;2023-02-04T10:31:34;103001.38;;;-4.51;58.37
49709;BME280;35601;55.902;13.606;2023-02-04T10:34:03;103005.34;;;-4.51;57.97
49709;BME280;35601;55.902;13.606;2023-02-04T10:36:23;103011.85;;;-5.06;57.81
49709;BME280;35601;55.902;13.606;2023-02-04T10:38:58;103014.19;;;-4.90;58.98
49709;BME280;35601;55.902;13.606;2023-02-04T10:41:14;103014.21;;;-4.93;58.97
49709;BME280;35601;55.902;13.606;2023-02-04T10:43:40;103010.70;;;-4.77;58.20
49709;BME280;35601;55.902;13.606;2023-02-04T10:46:05;103010.55;;;-4.42;58.30
49709;BME280;35601;55.902;13.606;2023-02-04T10:48:38;103007.86;;;-4.21;56.14
49709;BME280;35601;55.902;13.606;2023-02-04T10:50:57;103011.92;;;-4.46;55.36
49709;BME280;35601;55.902;13.606;2023-02-04T10:53:23;103015.00;;;-4.74;55.53
49709;BME280;35601;55.902;13.606;2023-02-04T10:55:47;103019.06;;;-5.00;55.76
49709;BME280;35601;55.902;13.606;2023-02-04T10:58:16;103019.42;;;-4.77;56.53
49709;BME280;35601;55.902;13.606;2023-02-04T11:00:38;103012.41;;;-4.46;56.78
49709;BME280;35601;55.902;13.606;2023-02-04T11:03:08;103013.24;;;-4.58;56.70
49709;BME280;35601;55.902;13.606;2023-02-04T11:05:30;103013.30;;;-4.45;57.75
49709;BME280;35601;55.902;13.606;2023-02-04T11:07:54;103015.18;;;-5.07;58.14
49709;BME280;35601;55.902;13.606;2023-02-04T11:10:21;103018.26;;;-4.74;58.55
49709;BME280;35601;55.902;13.606;2023-02-04T11:12:57;103016.37;;;-5.25;58.00
49709;BME280;35601;55.902;13.606;2023-02-04T11:17:36;103023.18;;;-4.72;56.15
49709;BME280;35601;55.902;13.606;2023-02-04T11:20:12;103023.56;;;-4.71;58.35
49709;BME280;35601;55.902;13.606;2023-02-04T11:22:35;103016.77;;;-3.92;57.81
49709;BME280;35601;55.902;13.606;2023-02-04T11:24:52;103018.30;;;-4.24;56.81
49709;BME280;35601;55.902;13.606;2023-02-04T11:27:21;103019.12;;;-4.28;56.06
49709;BME280;35601;55.902;13.606;2023-02-04T11:29:42;103025.00;;;-3.85;56.03
49709;BME280;35601;55.902;13.606;2023-02-04T11:32:26;103029.95;;;-4.37;55.91
49709;BME280;35601;55.902;13.606;2023-02-04T11:34:44;103034.87;;;-4.29;56.23
49709;BME280;35601;55.902;13.606;2023-02-04T11:37:13;103033.32;;;-3.88;55.34
49709;BME280;35601;55.902;13.606;2023-02-04T11:39:28;103036.31;;;-4.00;56.08
49709;BME280;35601;55.902;13.606;2023-02-04T11:41:49;103032.92;;;-3.61;54.80
49709;BME280;35601;55.902;13.606;2023-02-04T11:44:15;103031.52;;;-3.59;53.39
49709;BME280;35601;55.902;13.606;2023-02-04T11:46:40;103035.30;;;-3.57;53.52
49709;BME280;35601;55.902;13.606;2023-02-04T11:49:15;103030.79;;;-3.40;52.70
49709;BME280;35601;55.902;13.606;2023-02-04T11:51:33;103037.16;;;-3.82;53.29
49709;BME280;35601;55.902;13.606;2023-02-04T11:53:57;103045.08;;;-3.79;52.24
49709;BME280;35601;55.902;13.606;2023-02-04T11:56:22;103045.55;;;-3.30;53.13
49709;BME280;35601;55.902;13.606;2023-02-04T11:58:49;103045.06;;;-3.59;50.55
49709;BME280;35601;55.902;13.606;2023-02-04T12:01:16;103045.18;;;-3.66;51.41
49709;BME280;35601;55.902;13.606;2023-02-04T12:03:45;103044.50;;;-3.44;50.94
49709;BME280;35601;55.902;13.606;2023-02-04T12:06:04;103045.83;;;-3.43;52.28
49709;BME280;35601;55.902;13.606;2023-02-04T12:08:31;103050.50;;;-3.29;52.55
49709;BME280;35601;55.902;13.606;2023-02-04T12:11:01;103048.24;;;-3.35;51.72
49709;BME280;35601;55.902;13.606;2023-02-04T12:13:22;103051.95;;;-3.58;50.69
49709;BME280;35601;55.902;13.606;2023-02-04T12:15:53;103049.44;;;-3.75;51.64
49709;BME280;35601;55.902;13.606;2023-02-04T12:18:11;103052.71;;;-3.39;51.44
49709;BME280;35601;55.902;13.606;2023-02-04T12:20:36;103052.78;;;-3.77;52.12
49709;BME280;35601;55.902;13.606;2023-02-04T12:23:01;103050.98;;;-4.13;53.07
49709;BME280;35601;55.902;13.606;2023-02-04T12:25:27;103053.11;;;-4.11;55.02
49709;BME280;35601;55.902;13.606;2023-02-04T12:27:53;103052.31;;;-3.91;55.47
49709;BME280;35601;55.902;13.606;2023-02-04T12:30:18;103053.98;;;-3.85;54.75
49709;BME280;35601;55.902;13.606;2023-02-04T12:32:43;103057.97;;;-3.86;53.75